< < Back
Terminal Aerodrome Forecast


Current Version              Previous Versions:   1  2  3  4  5  6  7  8  9  

Terminal Aerodrome Forecast

376
FTUS42 KJAX 010714 AAA
TAFJAX
TAF AMD
KJAX 010714Z 0107/0206 25006KT P6SM SCT250
      TEMPO 0110/0112 3SM BR
     FM011500 24007KT P6SM SCT040
     FM011800 26010KT P6SM VCTS BKN035CB
     FM020000 22006KT P6SM SCT040 BKN120
     FM020400 24005KT P6SM SCT250=

Latest METAR

436
SAUS80 KWBC 020200
MTRJAX
METAR KJAX 020156Z 21007KT 10SM FEW180 SCT250 27/20 A3007 RMK AO2 SLP182
T02720200


USA.gov is the U.S. government's official web portal to all federal, state and local government web resources and services.